Kakawis, Canada
Current Conditions -  °F | °C
As of 9:00 PM on Wednesday 26 Nov 2014 (Local Time) from CYQQ Reporting Station
Rain Showers Rain Showers  
Wind Chill: 50°   Ceiling: 3000
Heat Index: 50°   Visibility: 5mi
Dew Point: 50°   Wind: 20mph
Humidity: 100%   Direction: 140°SE
Pressure: 29.68"   Gusts: NA
Location:  49.19°N, 125.91°W
Report Text: CYQQ 270500Z 14017KT 5SM -SHRA SCT004 OVC030 10/10 A2968 RMK SF3SC5 SLP050
Loading
Personal Weather Stations






























Interactive Weather Map New forecast layout! Learn more

10-Day Weather Forecast

Advertisements
Track Severe Weather on mobile